sensor_id;sensor_type;location;lat;lon;timestamp;pressure;altitude;pressure_sealevel;temperature;humidity
5284;BME280;15377;48.540;9.268;2022-08-20T00:00:17;97380.19;;;18.54;100.00
5284;BME280;15377;48.540;9.268;2022-08-20T00:02:46;97367.06;;;18.49;100.00
5284;BME280;15377;48.540;9.268;2022-08-20T00:05:13;97358.59;;;18.36;100.00
5284;BME280;15377;48.540;9.268;2022-08-20T00:07:38;97368.25;;;18.35;100.00
5284;BME280;15377;48.540;9.268;2022-08-20T00:10:05;97371.94;;;18.43;100.00
5284;BME280;15377;48.540;9.268;2022-08-20T00:12:32;97376.25;;;18.44;100.00
5284;BME280;15377;48.540;9.268;2022-08-20T00:14:58;97375.00;;;18.45;100.00
5284;BME280;15377;48.540;9.268;2022-08-20T00:17:23;97369.16;;;18.43;100.00
5284;BME280;15377;48.540;9.268;2022-08-20T00:19:49;97373.22;;;18.42;100.00
5284;BME280;15377;48.540;9.268;2022-08-20T00:22:14;97365.25;;;18.33;100.00
5284;BME280;15377;48.540;9.268;2022-08-20T00:24:39;97323.22;;;18.07;100.00
5284;BME280;15377;48.540;9.268;2022-08-20T00:27:05;97378.66;;;18.35;100.00
5284;BME280;15377;48.540;9.268;2022-08-20T00:29:30;97375.63;;;18.33;100.00
5284;BME280;15377;48.540;9.268;2022-08-20T00:31:56;97363.81;;;18.21;100.00
5284;BME280;15377;48.540;9.268;2022-08-20T00:34:21;97379.16;;;18.33;100.00
5284;BME280;15377;48.540;9.268;2022-08-20T00:36:46;97376.38;;;18.33;100.00
5284;BME280;15377;48.540;9.268;2022-08-20T00:39:12;97382.19;;;18.35;100.00
5284;BME280;15377;48.540;9.268;2022-08-20T00:41:37;97380.91;;;18.36;100.00
5284;BME280;15377;48.540;9.268;2022-08-20T00:44:15;97376.38;;;18.33;100.00
5284;BME280;15377;48.540;9.268;2022-08-20T00:46:45;97387.06;;;18.29;100.00
5284;BME280;15377;48.540;9.268;2022-08-20T00:49:15;97377.16;;;18.28;100.00
5284;BME280;15377;48.540;9.268;2022-08-20T00:51:45;97381.22;;;18.27;100.00
5284;BME280;15377;48.540;9.268;2022-08-20T00:54:19;97379.94;;;18.28;100.00
5284;BME280;15377;48.540;9.268;2022-08-20T00:56:53;97381.94;;;18.33;100.00
5284;BME280;15377;48.540;9.268;2022-08-20T00:59:24;97385.50;;;18.28;100.00
5284;BME280;15377;48.540;9.268;2022-08-20T01:01:51;97374.94;;;18.21;100.00
5284;BME280;15377;48.540;9.268;2022-08-20T01:04:17;97385.81;;;18.25;100.00
5284;BME280;15377;48.540;9.268;2022-08-20T01:06:43;97378.97;;;18.26;100.00
5284;BME280;15377;48.540;9.268;2022-08-20T01:09:09;97380.22;;;18.25;100.00
5284;BME280;15377;48.540;9.268;2022-08-20T01:11:35;97385.28;;;18.26;100.00
5284;BME280;15377;48.540;9.268;2022-08-20T01:14:05;97377.75;;;18.21;100.00
5284;BME280;15377;48.540;9.268;2022-08-20T01:16:57;97381.00;;;18.25;100.00
5284;BME280;15377;48.540;9.268;2022-08-20T01:19:29;97378.72;;;18.24;100.00
5284;BME280;15377;48.540;9.268;2022-08-20T01:21:58;97387.91;;;18.19;100.00
5284;BME280;15377;48.540;9.268;2022-08-20T01:24:36;97390.75;;;18.13;100.00
5284;BME280;15377;48.540;9.268;2022-08-20T01:27:03;97394.28;;;18.14;100.00
5284;BME280;15377;48.540;9.268;2022-08-20T01:29:34;97393.06;;;18.09;100.00
5284;BME280;15377;48.540;9.268;2022-08-20T01:32:03;97389.38;;;18.01;100.00
5284;BME280;15377;48.540;9.268;2022-08-20T01:34:29;97398.47;;;18.02;100.00
5284;BME280;15377;48.540;9.268;2022-08-20T01:36:56;97394.44;;;17.97;100.00
5284;BME280;15377;48.540;9.268;2022-08-20T01:39:25;97402.56;;;17.95;100.00
5284;BME280;15377;48.540;9.268;2022-08-20T01:41:58;97401.06;;;17.94;100.00
5284;BME280;15377;48.540;9.268;2022-08-20T01:44:24;97391.06;;;17.80;100.00
5284;BME280;15377;48.540;9.268;2022-08-20T01:46:51;97393.81;;;17.86;100.00
5284;BME280;15377;48.540;9.268;2022-08-20T01:49:31;97399.13;;;17.84;100.00
5284;BME280;15377;48.540;9.268;2022-08-20T01:52:01;97400.41;;;17.83;100.00
5284;BME280;15377;48.540;9.268;2022-08-20T01:54:30;97402.69;;;17.84;100.00
5284;BME280;15377;48.540;9.268;2022-08-20T01:57:01;97408.25;;;17.84;100.00
5284;BME280;15377;48.540;9.268;2022-08-20T01:59:28;97409.00;;;17.85;100.00
5284;BME280;15377;48.540;9.268;2022-08-20T02:01:54;97409.53;;;17.83;100.00
5284;BME280;15377;48.540;9.268;2022-08-20T02:04:21;97398.25;;;17.70;100.00
5284;BME280;15377;48.540;9.268;2022-08-20T02:06:50;97410.34;;;17.78;100.00
5284;BME280;15377;48.540;9.268;2022-08-20T02:09:17;97406.28;;;17.79;100.00
5284;BME280;15377;48.540;9.268;2022-08-20T02:11:43;97409.63;;;17.72;100.00
5284;BME280;15377;48.540;9.268;2022-08-20T02:14:10;97406.16;;;17.66;100.00
5284;BME280;15377;48.540;9.268;2022-08-20T02:16:38;97413.25;;;17.62;100.00
5284;BME280;15377;48.540;9.268;2022-08-20T02:19:09;97427.69;;;17.60;100.00
5284;BME280;15377;48.540;9.268;2022-08-20T02:21:40;97421.63;;;17.56;100.00
5284;BME280;15377;48.540;9.268;2022-08-20T02:24:07;97430.75;;;17.57;100.00
5284;BME280;15377;48.540;9.268;2022-08-20T02:26:33;97425.25;;;17.51;100.00
5284;BME280;15377;48.540;9.268;2022-08-20T02:29:04;97424.97;;;17.49;100.00
5284;BME280;15377;48.540;9.268;2022-08-20T02:31:30;97415.13;;;17.48;100.00
5284;BME280;15377;48.540;9.268;2022-08-20T02:33:55;97418.69;;;17.49;100.00
5284;BME280;15377;48.540;9.268;2022-08-20T02:36:20;97413.34;;;17.51;100.00
5284;BME280;15377;48.540;9.268;2022-08-20T02:38:46;97424.69;;;17.53;100.00
5284;BME280;15377;48.540;9.268;2022-08-20T02:41:12;97409.56;;;17.48;100.00
5284;BME280;15377;48.540;9.268;2022-08-20T02:43:38;97428.47;;;17.55;100.00
5284;BME280;15377;48.540;9.268;2022-08-20T02:46:04;97416.56;;;17.60;100.00
5284;BME280;15377;48.540;9.268;2022-08-20T02:48:31;97419.84;;;17.59;100.00
5284;BME280;15377;48.540;9.268;2022-08-20T02:51:03;97416.56;;;17.60;100.00
5284;BME280;15377;48.540;9.268;2022-08-20T02:53:33;97420.06;;;17.66;100.00
5284;BME280;15377;48.540;9.268;2022-08-20T02:55:59;97414.00;;;17.62;100.00
5284;BME280;15377;48.540;9.268;2022-08-20T02:58:25;97412.22;;;17.65;100.00
5284;BME280;15377;48.540;9.268;2022-08-20T03:00:50;97414.78;;;17.63;100.00
5284;BME280;15377;48.540;9.268;2022-08-20T03:03:16;97411.22;;;17.62;100.00
5284;BME280;15377;48.540;9.268;2022-08-20T03:05:48;97390.81;;;17.54;100.00
5284;BME280;15377;48.540;9.268;2022-08-20T03:08:15;97402.09;;;17.62;100.00
5284;BME280;15377;48.540;9.268;2022-08-20T03:10:42;97389.97;;;17.65;100.00
5284;BME280;15377;48.540;9.268;2022-08-20T03:13:08;97384.19;;;17.57;100.00
5284;BME280;15377;48.540;9.268;2022-08-20T03:15:41;97398.81;;;17.63;100.00
5284;BME280;15377;48.540;9.268;2022-08-20T03:18:07;97395.81;;;17.61;100.00
5284;BME280;15377;48.540;9.268;2022-08-20T03:20:33;97396.84;;;17.58;100.00
5284;BME280;15377;48.540;9.268;2022-08-20T03:22:59;97401.44;;;17.56;100.00
5284;BME280;15377;48.540;9.268;2022-08-20T03:25:24;97400.44;;;17.53;100.00
5284;BME280;15377;48.540;9.268;2022-08-20T03:27:50;97395.88;;;17.50;100.00
5284;BME280;15377;48.540;9.268;2022-08-20T03:30:16;97389.66;;;17.33;100.00
5284;BME280;15377;48.540;9.268;2022-08-20T03:32:42;97402.03;;;17.43;100.00
5284;BME280;15377;48.540;9.268;2022-08-20T03:35:11;97406.88;;;17.32;100.00
5284;BME280;15377;48.540;9.268;2022-08-20T03:37:37;97400.66;;;17.20;100.00
5284;BME280;15377;48.540;9.268;2022-08-20T03:40:06;97419.78;;;17.29;100.00
5284;BME280;15377;48.540;9.268;2022-08-20T03:42:32;97411.22;;;17.27;100.00
5284;BME280;15377;48.540;9.268;2022-08-20T03:44:57;97413.22;;;17.27;100.00
5284;BME280;15377;48.540;9.268;2022-08-20T03:47:23;97413.28;;;17.21;100.00
5284;BME280;15377;48.540;9.268;2022-08-20T03:49:49;97412.78;;;17.17;100.00
5284;BME280;15377;48.540;9.268;2022-08-20T03:52:14;97415.34;;;17.15;100.00
5284;BME280;15377;48.540;9.268;2022-08-20T03:54:40;97408.03;;;17.07;100.00
5284;BME280;15377;48.540;9.268;2022-08-20T03:57:12;97416.09;;;17.10;100.00
5284;BME280;15377;48.540;9.268;2022-08-20T03:59:37;97391.16;;;16.99;100.00
5284;BME280;15377;48.540;9.268;2022-08-20T04:02:02;97424.16;;;17.19;100.00
5284;BME280;15377;48.540;9.268;2022-08-20T04:04:29;97422.34;;;17.22;100.00
5284;BME280;15377;48.540;9.268;2022-08-20T04:06:54;97406.47;;;17.17;100.00
5284;BME280;15377;48.540;9.268;2022-08-20T04:09:20;97400.66;;;17.20;100.00
5284;BME280;15377;48.540;9.268;2022-08-20T04:11:46;97414.47;;;17.31;100.00
5284;BME280;15377;48.540;9.268;2022-08-20T04:14:11;97411.97;;;17.28;100.00
5284;BME280;15377;48.540;9.268;2022-08-20T04:16:38;97418.00;;;17.37;100.00
5284;BME280;15377;48.540;9.268;2022-08-20T04:19:04;97415.22;;;17.37;100.00
5284;BME280;15377;48.540;9.268;2022-08-20T04:21:30;97420.47;;;17.46;100.00
5284;BME280;15377;48.540;9.268;2022-08-20T04:23:56;97423.69;;;17.50;100.00
5284;BME280;15377;48.540;9.268;2022-08-20T04:26:22;97429.75;;;17.54;100.00
5284;BME280;15377;48.540;9.268;2022-08-20T04:28:47;97424.91;;;17.60;100.00
5284;BME280;15377;48.540;9.268;2022-08-20T04:31:17;97421.31;;;17.65;100.00
5284;BME280;15377;48.540;9.268;2022-08-20T04:33:42;97421.56;;;17.67;100.00
5284;BME280;15377;48.540;9.268;2022-08-20T04:36:09;97409.22;;;17.63;100.00
5284;BME280;15377;48.540;9.268;2022-08-20T04:38:34;97416.00;;;17.67;100.00
5284;BME280;15377;48.540;9.268;2022-08-20T04:41:00;97430.31;;;17.77;100.00
5284;BME280;15377;48.540;9.268;2022-08-20T04:43:30;97432.31;;;17.82;100.00
5284;BME280;15377;48.540;9.268;2022-08-20T04:45:59;97404.09;;;17.67;100.00
5284;BME280;15377;48.540;9.268;2022-08-20T04:48:26;97429.47;;;17.87;100.00
5284;BME280;15377;48.540;9.268;2022-08-20T04:50:54;97436.03;;;17.90;100.00
5284;BME280;15377;48.540;9.268;2022-08-20T04:53:22;97439.53;;;17.96;100.00
5284;BME280;15377;48.540;9.268;2022-08-20T04:55:48;97447.31;;;18.03;100.00
5284;BME280;15377;48.540;9.268;2022-08-20T04:58:17;97444.25;;;18.06;100.00
5284;BME280;15377;48.540;9.268;2022-08-20T05:00:47;97444.50;;;18.08;100.00
5284;BME280;15377;48.540;9.268;2022-08-20T05:03:15;97447.97;;;18.14;100.00
5284;BME280;15377;48.540;9.268;2022-08-20T05:05:40;97436.88;;;18.09;100.00
5284;BME280;15377;48.540;9.268;2022-08-20T05:08:06;97454.44;;;18.28;100.00
5284;BME280;15377;48.540;9.268;2022-08-20T05:10:31;97455.91;;;18.34;100.00
5284;BME280;15377;48.540;9.268;2022-08-20T05:12:57;97453.91;;;18.29;100.00
5284;BME280;15377;48.540;9.268;2022-08-20T05:15:23;97441.78;;;18.27;100.00
5284;BME280;15377;48.540;9.268;2022-08-20T05:17:54;97459.84;;;18.44;100.00
5284;BME280;15377;48.540;9.268;2022-08-20T05:20:20;97466.94;;;18.45;100.00
5284;BME280;15377;48.540;9.268;2022-08-20T05:22:46;97460.91;;;18.41;100.00
5284;BME280;15377;48.540;9.268;2022-08-20T05:25:11;97479.13;;;18.42;100.00
5284;BME280;15377;48.540;9.268;2022-08-20T05:27:37;97460.72;;;18.34;100.00
5284;BME280;15377;48.540;9.268;2022-08-20T05:30:09;97471.81;;;18.39;100.00
5284;BME280;15377;48.540;9.268;2022-08-20T05:32:35;97478.66;;;18.38;100.00
5284;BME280;15377;48.540;9.268;2022-08-20T05:35:04;97479.69;;;18.35;100.00
5284;BME280;15377;48.540;9.268;2022-08-20T05:37:29;97473.91;;;18.33;100.00
5284;BME280;15377;48.540;9.268;2022-08-20T05:39:55;97486.31;;;18.32;100.00
5284;BME280;15377;48.540;9.268;2022-08-20T05:42:21;97475.41;;;18.34;100.00
5284;BME280;15377;48.540;9.268;2022-08-20T05:44:46;97473.38;;;18.35;100.00
5284;BME280;15377;48.540;9.268;2022-08-20T05:47:12;97487.97;;;18.46;100.00
5284;BME280;15377;48.540;9.268;2022-08-20T05:49:38;97479.34;;;18.44;100.00
5284;BME280;15377;48.540;9.268;2022-08-20T05:52:04;97487.66;;;18.50;100.00
5284;BME280;15377;48.540;9.268;2022-08-20T05:54:30;97487.38;;;18.53;100.00
5284;BME280;15377;48.540;9.268;2022-08-20T05:56:56;97485.81;;;18.58;100.00
5284;BME280;15377;48.540;9.268;2022-08-20T05:59:23;97484.75;;;18.61;100.00
5284;BME280;15377;48.540;9.268;2022-08-20T06:01:49;97487.25;;;18.64;100.00
5284;BME280;15377;48.540;9.268;2022-08-20T06:04:14;97486.19;;;18.67;100.00
5284;BME280;15377;48.540;9.268;2022-08-20T06:06:52;97480.09;;;18.69;100.00
5284;BME280;15377;48.540;9.268;2022-08-20T06:09:20;97481.78;;;18.77;100.00
5284;BME280;15377;48.540;9.268;2022-08-20T06:11:46;97485.25;;;18.83;100.00
5284;BME280;15377;48.540;9.268;2022-08-20T06:14:11;97470.63;;;18.77;100.00
5284;BME280;15377;48.540;9.268;2022-08-20T06:16:37;97492.66;;;18.99;100.00
5284;BME280;15377;48.540;9.268;2022-08-20T06:19:04;97495.31;;;19.10;100.00
5284;BME280;15377;48.540;9.268;2022-08-20T06:21:29;97502.84;;;19.20;100.00
5284;BME280;15377;48.540;9.268;2022-08-20T06:23:55;97496.19;;;19.23;100.00
5284;BME280;15377;48.540;9.268;2022-08-20T06:26:20;97500.56;;;19.37;100.00
5284;BME280;15377;48.540;9.268;2022-08-20T06:28:45;97490.31;;;19.45;100.00
5284;BME280;15377;48.540;9.268;2022-08-20T06:31:11;97473.09;;;19.41;100.00
5284;BME280;15377;48.540;9.268;2022-08-20T06:33:36;97485.31;;;19.57;100.00
5284;BME280;15377;48.540;9.268;2022-08-20T06:36:02;97492.47;;;19.71;100.00
5284;BME280;15377;48.540;9.268;2022-08-20T06:38:28;97501.44;;;19.82;100.00
5284;BME280;15377;48.540;9.268;2022-08-20T06:40:53;97498.72;;;19.77;100.00
5284;BME280;15377;48.540;9.268;2022-08-20T06:43:18;97505.19;;;19.85;100.00
5284;BME280;15377;48.540;9.268;2022-08-20T06:45:44;97500.69;;;19.82;100.00
5284;BME280;15377;48.540;9.268;2022-08-20T06:48:12;97502.47;;;19.98;100.00
5284;BME280;15377;48.540;9.268;2022-08-20T06:50:42;97499.28;;;20.07;100.00
5284;BME280;15377;48.540;9.268;2022-08-20T06:53:09;97510.91;;;20.11;100.00
5284;BME280;15377;48.540;9.268;2022-08-20T06:55:37;97509.53;;;20.17;100.00
5284;BME280;15377;48.540;9.268;2022-08-20T06:58:06;97507.72;;;20.33;100.00
5284;BME280;15377;48.540;9.268;2022-08-20T07:00:34;97518.53;;;20.42;100.00
5284;BME280;15377;48.540;9.268;2022-08-20T07:03:00;97511.31;;;20.59;100.00
5284;BME280;15377;48.540;9.268;2022-08-20T07:05:28;97509.06;;;20.71;100.00
5284;BME280;15377;48.540;9.268;2022-08-20T07:07:54;97525.00;;;20.76;100.00
5284;BME280;15377;48.540;9.268;2022-08-20T07:10:21;97522.69;;;20.93;100.00
5284;BME280;15377;48.540;9.268;2022-08-20T07:12:47;97534.94;;;21.03;100.00
5284;BME280;15377;48.540;9.268;2022-08-20T07:15:14;97534.06;;;21.08;100.00
5284;BME280;15377;48.540;9.268;2022-08-20T07:17:39;97527.19;;;21.22;100.00
5284;BME280;15377;48.540;9.268;2022-08-20T07:20:10;97531.81;;;21.32;100.00
5284;BME280;15377;48.540;9.268;2022-08-20T07:22:36;97535.22;;;21.38;100.00
5284;BME280;15377;48.540;9.268;2022-08-20T07:25:07;97521.88;;;21.31;100.00
5284;BME280;15377;48.540;9.268;2022-08-20T07:27:33;97544.84;;;21.30;100.00
5284;BME280;15377;48.540;9.268;2022-08-20T07:29:59;97538.38;;;21.22;100.00
5284;BME280;15377;48.540;9.268;2022-08-20T07:32:44;97553.22;;;21.17;100.00
5284;BME280;15377;48.540;9.268;2022-08-20T07:35:12;97553.44;;;21.19;100.00
5284;BME280;15377;48.540;9.268;2022-08-20T07:37:40;97554.94;;;21.33;100.00
5284;BME280;15377;48.540;9.268;2022-08-20T07:40:08;97560.53;;;21.33;100.00
5284;BME280;15377;48.540;9.268;2022-08-20T07:42:35;97545.34;;;21.41;100.00
5284;BME280;15377;48.540;9.268;2022-08-20T07:45:07;97565.16;;;21.56;100.00
5284;BME280;15377;48.540;9.268;2022-08-20T07:47:35;97552.31;;;21.61;100.00
5284;BME280;15377;48.540;9.268;2022-08-20T07:50:01;97562.22;;;21.62;100.00
5284;BME280;15377;48.540;9.268;2022-08-20T07:52:27;97558.78;;;21.69;100.00
5284;BME280;15377;48.540;9.268;2022-08-20T07:54:52;97564.56;;;21.84;100.00
5284;BME280;15377;48.540;9.268;2022-08-20T07:57:17;97570.44;;;21.93;100.00
5284;BME280;15377;48.540;9.268;2022-08-20T07:59:43;97562.53;;;22.05;100.00
5284;BME280;15377;48.540;9.268;2022-08-20T08:02:11;97576.50;;;22.18;100.00
5284;BME280;15377;48.540;9.268;2022-08-20T08:04:37;97568.88;;;22.39;100.00
5284;BME280;15377;48.540;9.268;2022-08-20T08:07:03;97573.34;;;22.55;100.00
5284;BME280;15377;48.540;9.268;2022-08-20T08:09:29;97566.91;;;22.47;100.00
5284;BME280;15377;48.540;9.268;2022-08-20T08:11:57;97568.25;;;22.33;100.00
5284;BME280;15377;48.540;9.268;2022-08-20T08:14:25;97562.84;;;22.35;100.00
5284;BME280;15377;48.540;9.268;2022-08-20T08:16:55;97578.47;;;22.64;100.00
5284;BME280;15377;48.540;9.268;2022-08-20T08:19:22;97575.63;;;22.84;100.00
5284;BME280;15377;48.540;9.268;2022-08-20T08:21:48;97574.88;;;22.84;100.00
5284;BME280;15377;48.540;9.268;2022-08-20T08:24:14;97582.00;;;23.12;100.00
5284;BME280;15377;48.540;9.268;2022-08-20T08:26:41;97576.09;;;23.51;100.00
5284;BME280;15377;48.540;9.268;2022-08-20T08:29:07;97580.66;;;23.69;100.00
5284;BME280;15377;48.540;9.268;2022-08-20T08:31:33;97592.75;;;23.92;100.00
5284;BME280;15377;48.540;9.268;2022-08-20T08:33:58;97582.66;;;23.89;100.00
5284;BME280;15377;48.540;9.268;2022-08-20T08:36:24;97574.78;;;23.95;100.00
5284;BME280;15377;48.540;9.268;2022-08-20T08:38:52;97579.66;;;24.02;100.00
5284;BME280;15377;48.540;9.268;2022-08-20T08:41:36;97575.56;;;24.03;100.00
5284;BME280;15377;48.540;9.268;2022-08-20T08:44:09;97588.16;;;24.17;100.00
5284;BME280;15377;48.540;9.268;2022-08-20T08:46:42;97590.19;;;24.09;100.00
5284;BME280;15377;48.540;9.268;2022-08-20T08:49:11;97589.22;;;23.99;100.00
5284;BME280;15377;48.540;9.268;2022-08-20T08:51:47;97591.84;;;23.97;100.00
5284;BME280;15377;48.540;9.268;2022-08-20T08:54:20;97593.16;;;23.96;100.00
5284;BME280;15377;48.540;9.268;2022-08-20T08:56:46;97588.97;;;23.82;100.00
5284;BME280;15377;48.540;9.268;2022-08-20T08:59:12;97580.34;;;23.80;100.00
5284;BME280;15377;48.540;9.268;2022-08-20T09:01:47;97589.94;;;23.92;100.00
5284;BME280;15377;48.540;9.268;2022-08-20T09:04:14;97589.81;;;24.05;100.00
5284;BME280;15377;48.540;9.268;2022-08-20T09:06:41;97587.59;;;24.11;100.00
5284;BME280;15377;48.540;9.268;2022-08-20T09:09:22;97579.75;;;24.32;100.00
5284;BME280;15377;48.540;9.268;2022-08-20T09:11:53;97584.25;;;24.50;100.00
5284;BME280;15377;48.540;9.268;2022-08-20T09:14:19;97569.69;;;24.74;100.00
5284;BME280;15377;48.540;9.268;2022-08-20T09:16:45;97586.94;;;24.71;100.00
5284;BME280;15377;48.540;9.268;2022-08-20T09:19:11;97564.00;;;24.29;100.00
5284;BME280;15377;48.540;9.268;2022-08-20T09:21:36;97581.19;;;24.11;100.00
5284;BME280;15377;48.540;9.268;2022-08-20T09:24:02;97577.78;;;23.97;100.00
5284;BME280;15377;48.540;9.268;2022-08-20T09:26:29;97586.56;;;23.86;100.00
5284;BME280;15377;48.540;9.268;2022-08-20T09:28:55;97580.22;;;23.93;100.00
5284;BME280;15377;48.540;9.268;2022-08-20T09:31:20;97581.16;;;23.88;100.00
5284;BME280;15377;48.540;9.268;2022-08-20T09:33:48;97570.50;;;24.02;100.00
5284;BME280;15377;48.540;9.268;2022-08-20T09:36:13;97571.38;;;24.55;100.00
5284;BME280;15377;48.540;9.268;2022-08-20T09:38:39;97573.78;;;24.73;100.00
5284;BME280;15377;48.540;9.268;2022-08-20T09:41:04;97568.50;;;25.30;100.00
5284;BME280;15377;48.540;9.268;2022-08-20T09:43:29;97567.94;;;25.93;100.00
5284;BME280;15377;48.540;9.268;2022-08-20T09:45:55;97555.66;;;26.62;100.00
5284;BME280;15377;48.540;9.268;2022-08-20T09:48:20;97555.13;;;27.22;100.00
5284;BME280;15377;48.540;9.268;2022-08-20T09:50:47;97551.50;;;27.05;100.00
5284;BME280;15377;48.540;9.268;2022-08-20T09:53:13;97559.31;;;26.48;100.00
5284;BME280;15377;48.540;9.268;2022-08-20T09:55:44;97556.19;;;26.36;100.00
5284;BME280;15377;48.540;9.268;2022-08-20T10:00:42;97558.78;;;27.66;100.00
5284;BME280;15377;48.540;9.268;2022-08-20T10:03:07;97554.41;;;27.39;100.00
5284;BME280;15377;48.540;9.268;2022-08-20T10:05:32;97560.84;;;26.73;100.00
5284;BME280;15377;48.540;9.268;2022-08-20T10:07:58;97557.25;;;26.97;100.00
5284;BME280;15377;48.540;9.268;2022-08-20T10:10:24;97556.38;;;28.23;100.00
5284;BME280;15377;48.540;9.268;2022-08-20T10:12:49;97547.66;;;29.29;100.00
5284;BME280;15377;48.540;9.268;2022-08-20T10:15:14;97553.03;;;30.10;100.00
5284;BME280;15377;48.540;9.268;2022-08-20T10:17:41;97552.03;;;30.86;100.00
5284;BME280;15377;48.540;9.268;2022-08-20T10:20:09;97540.88;;;31.30;94.91
5284;BME280;15377;48.540;9.268;2022-08-20T10:22:34;97546.84;;;32.86;94.08
5284;BME280;15377;48.540;9.268;2022-08-20T10:25:00;97536.56;;;33.52;78.13
5284;BME280;15377;48.540;9.268;2022-08-20T10:27:26;97545.84;;;33.64;71.29
5284;BME280;15377;48.540;9.268;2022-08-20T10:29:51;97534.16;;;33.60;71.65
5284;BME280;15377;48.540;9.268;2022-08-20T10:32:16;97527.34;;;32.04;77.76
5284;BME280;15377;48.540;9.268;2022-08-20T10:34:44;97537.06;;;29.96;83.26
5284;BME280;15377;48.540;9.268;2022-08-20T10:37:15;97533.75;;;28.95;95.43
5284;BME280;15377;48.540;9.268;2022-08-20T10:39:41;97547.09;;;26.45;100.00
5284;BME280;15377;48.540;9.268;2022-08-20T10:42:07;97563.59;;;25.45;100.00
5284;BME280;15377;48.540;9.268;2022-08-20T10:44:32;97570.06;;;24.56;100.00
5284;BME280;15377;48.540;9.268;2022-08-20T10:47:15;97560.34;;;23.99;100.00
5284;BME280;15377;48.540;9.268;2022-08-20T10:49:42;97565.69;;;23.74;100.00
5284;BME280;15377;48.540;9.268;2022-08-20T10:52:07;97535.38;;;23.37;100.00
5284;BME280;15377;48.540;9.268;2022-08-20T10:54:32;97536.47;;;23.06;100.00
5284;BME280;15377;48.540;9.268;2022-08-20T10:57:02;97532.06;;;22.91;100.00
5284;BME280;15377;48.540;9.268;2022-08-20T10:59:28;97534.88;;;22.91;100.00
5284;BME280;15377;48.540;9.268;2022-08-20T11:01:53;97529.47;;;22.65;100.00
5284;BME280;15377;48.540;9.268;2022-08-20T11:04:19;97550.53;;;22.38;100.00
5284;BME280;15377;48.540;9.268;2022-08-20T11:06:44;97536.00;;;22.06;100.00
5284;BME280;15377;48.540;9.268;2022-08-20T11:09:10;97555.69;;;21.93;100.00
5284;BME280;15377;48.540;9.268;2022-08-20T11:11:35;97540.53;;;21.29;100.00
5284;BME280;15377;48.540;9.268;2022-08-20T11:14:00;97522.88;;;20.82;100.00
5284;BME280;15377;48.540;9.268;2022-08-20T11:16:26;97531.63;;;20.47;100.00
5284;BME280;15377;48.540;9.268;2022-08-20T11:18:51;97542.31;;;20.17;100.00
5284;BME280;15377;48.540;9.268;2022-08-20T11:21:16;97530.88;;;19.83;100.00
5284;BME280;15377;48.540;9.268;2022-08-20T11:23:42;97521.06;;;19.58;100.00
5284;BME280;15377;48.540;9.268;2022-08-20T11:26:07;97506.50;;;19.47;100.00
5284;BME280;15377;48.540;9.268;2022-08-20T11:28:33;97540.31;;;19.62;100.00
5284;BME280;15377;48.540;9.268;2022-08-20T11:30:59;97539.19;;;19.52;100.00
5284;BME280;15377;48.540;9.268;2022-08-20T11:33:26;97544.94;;;19.41;100.00
5284;BME280;15377;48.540;9.268;2022-08-20T11:35:51;97545.31;;;19.08;100.00
5284;BME280;15377;48.540;9.268;2022-08-20T11:38:17;97535.66;;;19.09;100.00
5284;BME280;15377;48.540;9.268;2022-08-20T11:40:43;97545.44;;;18.97;100.00
5284;BME280;15377;48.540;9.268;2022-08-20T11:43:10;97553.38;;;18.87;100.00
5284;BME280;15377;48.540;9.268;2022-08-20T11:45:36;97538.81;;;18.76;100.00
5284;BME280;15377;48.540;9.268;2022-08-20T11:48:01;97514.44;;;18.58;100.00
5284;BME280;15377;48.540;9.268;2022-08-20T11:50:27;97544.38;;;18.76;100.00
5284;BME280;15377;48.540;9.268;2022-08-20T11:52:52;97540.91;;;18.94;100.00
5284;BME280;15377;48.540;9.268;2022-08-20T11:55:17;97527.66;;;19.00;100.00
5284;BME280;15377;48.540;9.268;2022-08-20T11:57:46;97519.97;;;19.06;100.00
5284;BME280;15377;48.540;9.268;2022-08-20T12:00:18;97533.44;;;19.26;100.00
5284;BME280;15377;48.540;9.268;2022-08-20T12:02:44;97523.19;;;19.34;100.00
5284;BME280;15377;48.540;9.268;2022-08-20T12:05:10;97538.75;;;19.48;100.00
5284;BME280;15377;48.540;9.268;2022-08-20T12:07:36;97539.34;;;19.59;100.00
5284;BME280;15377;48.540;9.268;2022-08-20T12:10:04;97523.50;;;19.49;100.00
5284;BME280;15377;48.540;9.268;2022-08-20T12:12:30;97529.16;;;19.62;100.00
5284;BME280;15377;48.540;9.268;2022-08-20T12:14:56;97532.38;;;19.84;100.00
5284;BME280;15377;48.540;9.268;2022-08-20T12:17:27;97535.09;;;19.90;100.00
5284;BME280;15377;48.540;9.268;2022-08-20T12:19:54;97528.88;;;19.97;100.00
5284;BME280;15377;48.540;9.268;2022-08-20T12:22:20;97526.50;;;20.19;100.00
5284;BME280;15377;48.540;9.268;2022-08-20T12:24:46;97521.50;;;20.31;100.00
5284;BME280;15377;48.540;9.268;2022-08-20T12:27:17;97517.66;;;20.34;100.00
5284;BME280;15377;48.540;9.268;2022-08-20T12:29:45;97521.53;;;20.44;100.00
5284;BME280;15377;48.540;9.268;2022-08-20T12:32:12;97520.59;;;20.54;100.00
5284;BME280;15377;48.540;9.268;2022-08-20T12:34:39;97514.56;;;20.63;100.00
5284;BME280;15377;48.540;9.268;2022-08-20T12:37:19;97501.31;;;20.64;100.00
5284;BME280;15377;48.540;9.268;2022-08-20T12:39:47;97514.72;;;20.97;100.00
5284;BME280;15377;48.540;9.268;2022-08-20T12:42:13;97488.00;;;20.96;100.00
5284;BME280;15377;48.540;9.268;2022-08-20T12:44:39;97518.16;;;21.16;100.00
5284;BME280;15377;48.540;9.268;2022-08-20T12:47:06;97520.19;;;21.02;100.00
5284;BME280;15377;48.540;9.268;2022-08-20T12:49:32;97517.06;;;21.19;100.00
5284;BME280;15377;48.540;9.268;2022-08-20T12:51:57;97520.25;;;21.36;100.00
5284;BME280;15377;48.540;9.268;2022-08-20T12:54:23;97513.91;;;21.35;100.00
5284;BME280;15377;48.540;9.268;2022-08-20T12:56:48;97520.53;;;21.58;100.00
5284;BME280;15377;48.540;9.268;2022-08-20T12:59:16;97520.41;;;21.77;100.00
5284;BME280;15377;48.540;9.268;2022-08-20T13:01:41;97514.97;;;21.92;100.00